sensor_id;sensor_type;location;lat;lon;timestamp;pressure;altitude;pressure_sealevel;temperature;humidity
57568;BME280;43403;51.948;5.922;2023-02-10T00:01:14;103483.66;;;2.71;100.00
57568;BME280;43403;51.948;5.922;2023-02-10T00:03:41;103487.09;;;2.71;100.00
57568;BME280;43403;51.948;5.922;2023-02-10T00:06:09;103489.63;;;2.74;100.00
57568;BME280;43403;51.948;5.922;2023-02-10T00:08:36;103487.09;;;2.71;100.00
57568;BME280;43403;51.948;5.922;2023-02-10T00:11:04;103496.50;;;2.75;100.00
57568;BME280;43403;51.948;5.922;2023-02-10T00:13:31;103496.41;;;2.80;100.00
57568;BME280;43403;51.948;5.922;2023-02-10T00:15:59;103491.31;;;2.75;100.00
57568;BME280;43403;51.948;5.922;2023-02-10T00:18:26;103488.75;;;2.75;100.00
57568;BME280;43403;51.948;5.922;2023-02-10T00:20:53;103493.06;;;2.75;100.00
57568;BME280;43403;51.948;5.922;2023-02-10T00:23:20;103491.34;;;2.74;100.00
57568;BME280;43403;51.948;5.922;2023-02-10T00:25:47;103498.28;;;2.73;100.00
57568;BME280;43403;51.948;5.922;2023-02-10T00:28:13;103500.03;;;2.73;100.00
57568;BME280;43403;51.948;5.922;2023-02-10T00:30:40;103498.22;;;2.76;100.00
57568;BME280;43403;51.948;5.922;2023-02-10T00:33:06;103504.28;;;2.75;100.00
57568;BME280;43403;51.948;5.922;2023-02-10T00:35:33;103509.44;;;2.79;100.00
57568;BME280;43403;51.948;5.922;2023-02-10T00:37:59;103506.84;;;2.79;100.00
57568;BME280;43403;51.948;5.922;2023-02-10T00:40:26;103505.94;;;2.80;100.00
57568;BME280;43403;51.948;5.922;2023-02-10T00:42:52;103508.59;;;2.76;100.00
57568;BME280;43403;51.948;5.922;2023-02-10T00:45:19;103505.09;;;2.79;100.00
57568;BME280;43403;51.948;5.922;2023-02-10T00:47:45;103505.97;;;2.78;100.00
57568;BME280;43403;51.948;5.922;2023-02-10T00:50:12;103508.56;;;2.78;100.00
57568;BME280;43403;51.948;5.922;2023-02-10T00:52:39;103514.75;;;2.71;100.00
57568;BME280;43403;51.948;5.922;2023-02-10T00:55:06;103506.97;;;2.71;100.00
57568;BME280;43403;51.948;5.922;2023-02-10T00:57:32;103501.81;;;2.69;100.00
57568;BME280;43403;51.948;5.922;2023-02-10T00:59:58;103507.09;;;2.65;100.00
57568;BME280;43403;51.948;5.922;2023-02-10T01:02:25;103515.75;;;2.62;100.00
57568;BME280;43403;51.948;5.922;2023-02-10T01:04:51;103515.88;;;2.56;100.00
57568;BME280;43403;51.948;5.922;2023-02-10T01:07:18;103520.25;;;2.52;100.00
57568;BME280;43403;51.948;5.922;2023-02-10T01:09:47;103530.59;;;2.55;100.00
57568;BME280;43403;51.948;5.922;2023-02-10T01:12:14;103524.56;;;2.53;100.00
57568;BME280;43403;51.948;5.922;2023-02-10T01:14:40;103523.75;;;2.51;100.00
57568;BME280;43403;51.948;5.922;2023-02-10T01:17:06;103525.53;;;2.49;100.00
57568;BME280;43403;51.948;5.922;2023-02-10T01:19:33;103532.47;;;2.46;100.00
57568;BME280;43403;51.948;5.922;2023-02-10T01:21:59;103544.50;;;2.50;100.00
57568;BME280;43403;51.948;5.922;2023-02-10T01:24:26;103535.88;;;2.49;100.00
57568;BME280;43403;51.948;5.922;2023-02-10T01:26:52;103540.25;;;2.46;100.00
57568;BME280;43403;51.948;5.922;2023-02-10T01:29:19;103535.06;;;2.47;100.00
57568;BME280;43403;51.948;5.922;2023-02-10T01:31:45;103535.06;;;2.46;100.00
57568;BME280;43403;51.948;5.922;2023-02-10T01:34:12;103531.66;;;2.44;100.00
57568;BME280;43403;51.948;5.922;2023-02-10T01:36:38;103535.16;;;2.41;100.00
57568;BME280;43403;51.948;5.922;2023-02-10T01:39:05;103529.19;;;2.37;100.00
57568;BME280;43403;51.948;5.922;2023-02-10T01:41:31;103528.25;;;2.40;100.00
57568;BME280;43403;51.948;5.922;2023-02-10T01:44:05;103525.63;;;2.43;100.00
57568;BME280;43403;51.948;5.922;2023-02-10T01:46:34;103525.56;;;2.45;100.00
57568;BME280;43403;51.948;5.922;2023-02-10T01:49:05;103521.34;;;2.39;100.00
57568;BME280;43403;51.948;5.922;2023-02-10T01:51:38;103516.19;;;2.39;100.00
57568;BME280;43403;51.948;5.922;2023-02-10T01:54:11;103515.53;;;2.28;100.00
57568;BME280;43403;51.948;5.922;2023-02-10T01:56:41;103519.91;;;2.24;100.00
57568;BME280;43403;51.948;5.922;2023-02-10T01:59:08;103525.09;;;2.24;100.00
57568;BME280;43403;51.948;5.922;2023-02-10T02:01:34;103521.59;;;2.27;100.00
57568;BME280;43403;51.948;5.922;2023-02-10T02:04:01;103528.47;;;2.28;100.00
57568;BME280;43403;51.948;5.922;2023-02-10T02:06:28;103521.56;;;2.28;100.00
57568;BME280;43403;51.948;5.922;2023-02-10T02:08:54;103530.16;;;2.30;100.00
57568;BME280;43403;51.948;5.922;2023-02-10T02:23:02;103534.38;;;2.36;100.00
57568;BME280;43403;51.948;5.922;2023-02-10T02:31:45;103539.78;;;2.24;100.00
57568;BME280;43403;51.948;5.922;2023-02-10T02:34:22;103536.38;;;2.22;100.00
57568;BME280;43403;51.948;5.922;2023-02-10T02:36:56;103539.00;;;2.18;100.00
57568;BME280;43403;51.948;5.922;2023-02-10T02:39:26;103532.16;;;2.13;100.00
57568;BME280;43403;51.948;5.922;2023-02-10T02:42:21;103527.91;;;2.10;100.00
57568;BME280;43403;51.948;5.922;2023-02-10T02:53:24;103531.53;;;2.00;100.00
57568;BME280;43403;51.948;5.922;2023-02-10T02:56:03;103532.44;;;1.96;100.00
57568;BME280;43403;51.948;5.922;2023-02-10T02:58:48;103541.16;;;1.90;100.00
57568;BME280;43403;51.948;5.922;2023-02-10T03:01:22;103550.66;;;1.90;100.00
57568;BME280;43403;51.948;5.922;2023-02-10T03:03:52;103554.22;;;1.83;100.00
57568;BME280;43403;51.948;5.922;2023-02-10T03:06:20;103551.69;;;1.78;100.00
57568;BME280;43403;51.948;5.922;2023-02-10T03:08:46;103549.16;;;1.75;100.00
57568;BME280;43403;51.948;5.922;2023-02-10T03:11:13;103545.75;;;1.71;100.00
57568;BME280;43403;51.948;5.922;2023-02-10T03:13:39;103543.28;;;1.64;100.00
57568;BME280;43403;51.948;5.922;2023-02-10T03:16:06;103550.19;;;1.62;100.00
57568;BME280;43403;51.948;5.922;2023-02-10T03:18:32;103552.81;;;1.58;100.00
57568;BME280;43403;51.948;5.922;2023-02-10T03:20:59;103556.31;;;1.54;100.00
57568;BME280;43403;51.948;5.922;2023-02-10T03:23:25;103561.50;;;1.53;100.00
57568;BME280;43403;51.948;5.922;2023-02-10T03:25:51;103559.00;;;1.48;100.00
57568;BME280;43403;51.948;5.922;2023-02-10T03:28:18;103560.75;;;1.46;100.00
57568;BME280;43403;51.948;5.922;2023-02-10T03:30:44;103555.63;;;1.43;100.00
57568;BME280;43403;51.948;5.922;2023-02-10T03:33:16;103560.84;;;1.40;100.00
57568;BME280;43403;51.948;5.922;2023-02-10T03:35:44;103551.34;;;1.39;100.00
57568;BME280;43403;51.948;5.922;2023-02-10T03:38:12;103553.97;;;1.37;100.00
57568;BME280;43403;51.948;5.922;2023-02-10T03:40:39;103557.53;;;1.29;100.00
57568;BME280;43403;51.948;5.922;2023-02-10T03:43:05;103557.59;;;1.23;100.00
57568;BME280;43403;51.948;5.922;2023-02-10T03:45:32;103560.25;;;1.16;100.00
57568;BME280;43403;51.948;5.922;2023-02-10T03:47:58;103554.25;;;1.14;100.00
57568;BME280;43403;51.948;5.922;2023-02-10T03:50:25;103559.44;;;1.14;100.00
57568;BME280;43403;51.948;5.922;2023-02-10T03:52:51;103553.44;;;1.12;100.00
57568;BME280;43403;51.948;5.922;2023-02-10T03:55:17;103560.28;;;1.13;100.00
57568;BME280;43403;51.948;5.922;2023-02-10T03:57:45;103564.63;;;1.13;100.00
57568;BME280;43403;51.948;5.922;2023-02-10T04:00:14;103556.03;;;1.08;100.00
57568;BME280;43403;51.948;5.922;2023-02-10T04:02:40;103558.66;;;1.06;100.00
57568;BME280;43403;51.948;5.922;2023-02-10T04:05:07;103550.94;;;1.02;100.00
57568;BME280;43403;51.948;5.922;2023-02-10T04:07:33;103554.44;;;0.97;100.00
57568;BME280;43403;51.948;5.922;2023-02-10T04:10:00;103559.59;;;0.99;100.00
57568;BME280;43403;51.948;5.922;2023-02-10T04:12:26;103555.34;;;0.95;100.00
57568;BME280;43403;51.948;5.922;2023-02-10T04:14:53;103563.03;;;0.98;100.00
57568;BME280;43403;51.948;5.922;2023-02-10T04:17:19;103560.53;;;0.93;100.00
57568;BME280;43403;51.948;5.922;2023-02-10T04:19:45;103558.00;;;0.90;100.00
57568;BME280;43403;51.948;5.922;2023-02-10T04:22:12;103565.75;;;0.89;100.00
57568;BME280;43403;51.948;5.922;2023-02-10T04:24:38;103563.22;;;0.83;100.00
57568;BME280;43403;51.948;5.922;2023-02-10T04:27:05;103565.00;;;0.74;100.00
57568;BME280;43403;51.948;5.922;2023-02-10T04:29:31;103565.91;;;0.72;100.00
57568;BME280;43403;51.948;5.922;2023-02-10T04:31:58;103568.50;;;0.73;100.00
57568;BME280;43403;51.948;5.922;2023-02-10T04:34:24;103563.34;;;0.70;100.00
57568;BME280;43403;51.948;5.922;2023-02-10T04:36:50;103562.53;;;0.65;100.00
57568;BME280;43403;51.948;5.922;2023-02-10T04:39:17;103562.53;;;0.67;100.00
57568;BME280;43403;51.948;5.922;2023-02-10T04:41:44;103567.69;;;0.67;100.00
57568;BME280;43403;51.948;5.922;2023-02-10T04:44:10;103574.63;;;0.63;100.00
57568;BME280;43403;51.948;5.922;2023-02-10T04:46:37;103572.94;;;0.59;100.00
57568;BME280;43403;51.948;5.922;2023-02-10T04:49:03;103566.94;;;0.57;100.00
57568;BME280;43403;51.948;5.922;2023-02-10T04:51:30;103574.63;;;0.58;100.00
57568;BME280;43403;51.948;5.922;2023-02-10T04:53:56;103580.69;;;0.56;100.00
57568;BME280;43403;51.948;5.922;2023-02-10T04:56:22;103581.56;;;0.56;100.00
57568;BME280;43403;51.948;5.922;2023-02-10T04:58:49;103581.53;;;0.58;100.00
57568;BME280;43403;51.948;5.922;2023-02-10T05:01:15;103585.81;;;0.62;100.00
57568;BME280;43403;51.948;5.922;2023-02-10T05:03:42;103583.22;;;0.65;100.00
57568;BME280;43403;51.948;5.922;2023-02-10T05:06:11;103590.00;;;0.72;100.00
57568;BME280;43403;51.948;5.922;2023-02-10T05:08:38;103586.63;;;0.67;100.00
57568;BME280;43403;51.948;5.922;2023-02-10T05:11:09;103590.84;;;0.74;100.00
57568;BME280;43403;51.948;5.922;2023-02-10T05:13:36;103592.56;;;0.75;100.00
57568;BME280;43403;51.948;5.922;2023-02-10T05:16:06;103589.09;;;0.79;100.00
57568;BME280;43403;51.948;5.922;2023-02-10T05:18:33;103585.66;;;0.79;100.00
57568;BME280;43403;51.948;5.922;2023-02-10T05:21:00;103577.91;;;0.79;100.00
57568;BME280;43403;51.948;5.922;2023-02-10T05:23:27;103578.78;;;0.76;100.00
57568;BME280;43403;51.948;5.922;2023-02-10T05:25:54;103582.25;;;0.75;100.00
57568;BME280;43403;51.948;5.922;2023-02-10T05:28:20;103584.84;;;0.74;100.00
57568;BME280;43403;51.948;5.922;2023-02-10T05:30:47;103583.09;;;0.74;100.00
57568;BME280;43403;51.948;5.922;2023-02-10T05:33:14;103579.72;;;0.71;100.00
57568;BME280;43403;51.948;5.922;2023-02-10T05:35:41;103579.72;;;0.68;100.00
57568;BME280;43403;51.948;5.922;2023-02-10T05:38:07;103579.75;;;0.66;100.00
57568;BME280;43403;51.948;5.922;2023-02-10T05:40:34;103579.75;;;0.65;100.00
57568;BME280;43403;51.948;5.922;2023-02-10T05:43:00;103589.28;;;0.61;100.00
57568;BME280;43403;51.948;5.922;2023-02-10T05:45:26;103594.44;;;0.61;100.00
57568;BME280;43403;51.948;5.922;2023-02-10T05:47:53;103582.38;;;0.60;100.00
57568;BME280;43403;51.948;5.922;2023-02-10T05:50:20;103583.28;;;0.57;100.00
57568;BME280;43403;51.948;5.922;2023-02-10T05:52:46;103588.44;;;0.57;100.00
57568;BME280;43403;51.948;5.922;2023-02-10T05:55:13;103588.47;;;0.54;100.00
57568;BME280;43403;51.948;5.922;2023-02-10T05:57:39;103589.34;;;0.53;100.00
57568;BME280;43403;51.948;5.922;2023-02-10T06:00:07;103590.19;;;0.55;100.00
57568;BME280;43403;51.948;5.922;2023-02-10T06:02:33;103597.09;;;0.52;100.00
57568;BME280;43403;51.948;5.922;2023-02-10T06:05:00;103591.09;;;0.48;100.00
57568;BME280;43403;51.948;5.922;2023-02-10T06:07:27;103587.69;;;0.43;100.00
57568;BME280;43403;51.948;5.922;2023-02-10T06:09:54;103586.84;;;0.43;100.00
57568;BME280;43403;51.948;5.922;2023-02-10T06:12:20;103582.53;;;0.43;100.00
57568;BME280;43403;51.948;5.922;2023-02-10T06:14:47;103582.53;;;0.43;100.00
57568;BME280;43403;51.948;5.922;2023-02-10T06:17:13;103577.41;;;0.42;100.00
57568;BME280;43403;51.948;5.922;2023-02-10T06:19:40;103579.94;;;0.43;100.00
57568;BME280;43403;51.948;5.922;2023-02-10T06:22:07;103579.94;;;0.45;100.00
57568;BME280;43403;51.948;5.922;2023-02-10T06:24:34;103583.41;;;0.44;100.00
57568;BME280;43403;51.948;5.922;2023-02-10T06:27:00;103579.09;;;0.41;100.00
57568;BME280;43403;51.948;5.922;2023-02-10T06:29:27;103585.09;;;0.43;100.00
57568;BME280;43403;51.948;5.922;2023-02-10T06:31:54;103576.56;;;0.36;100.00
57568;BME280;43403;51.948;5.922;2023-02-10T06:34:20;103586.03;;;0.36;100.00
57568;BME280;43403;51.948;5.922;2023-02-10T06:36:46;103581.78;;;0.30;100.00
57568;BME280;43403;51.948;5.922;2023-02-10T06:39:13;103584.38;;;0.30;100.00
57568;BME280;43403;51.948;5.922;2023-02-10T06:41:39;103589.53;;;0.29;100.00
57568;BME280;43403;51.948;5.922;2023-02-10T06:44:06;103592.13;;;0.29;100.00
57568;BME280;43403;51.948;5.922;2023-02-10T06:46:33;103592.13;;;0.27;100.00
57568;BME280;43403;51.948;5.922;2023-02-10T06:49:00;103593.84;;;0.25;100.00
57568;BME280;43403;51.948;5.922;2023-02-10T06:51:27;103596.44;;;0.25;100.00
57568;BME280;43403;51.948;5.922;2023-02-10T06:53:54;103594.75;;;0.24;100.00
57568;BME280;43403;51.948;5.922;2023-02-10T06:56:20;103599.06;;;0.24;100.00
57568;BME280;43403;51.948;5.922;2023-02-10T06:58:47;103605.06;;;0.23;100.00
57568;BME280;43403;51.948;5.922;2023-02-10T07:01:17;103600.75;;;0.23;100.00
57568;BME280;43403;51.948;5.922;2023-02-10T07:03:43;103596.50;;;0.19;100.00
57568;BME280;43403;51.948;5.922;2023-02-10T07:06:10;103606.81;;;0.17;100.00
57568;BME280;43403;51.948;5.922;2023-02-10T07:08:36;103606.81;;;0.17;100.00
57568;BME280;43403;51.948;5.922;2023-02-10T07:11:03;103593.94;;;0.16;100.00
57568;BME280;43403;51.948;5.922;2023-02-10T07:13:29;103593.91;;;0.19;100.00
57568;BME280;43403;51.948;5.922;2023-02-10T07:15:56;103607.66;;;0.21;100.00
57568;BME280;43403;51.948;5.922;2023-02-10T07:18:22;103610.22;;;0.24;100.00
57568;BME280;43403;51.948;5.922;2023-02-10T07:20:49;103617.94;;;0.29;100.00
57568;BME280;43403;51.948;5.922;2023-02-10T07:23:15;103617.88;;;0.35;100.00
57568;BME280;43403;51.948;5.922;2023-02-10T07:25:56;103610.19;;;0.32;100.00
57568;BME280;43403;51.948;5.922;2023-02-10T07:28:22;103612.69;;;0.39;100.00
57568;BME280;43403;51.948;5.922;2023-02-10T07:30:48;103612.66;;;0.41;100.00
57568;BME280;43403;51.948;5.922;2023-02-10T07:33:15;103610.94;;;0.43;100.00
57568;BME280;43403;51.948;5.922;2023-02-10T07:35:41;103625.56;;;0.43;100.00
57568;BME280;43403;51.948;5.922;2023-02-10T07:38:08;103623.81;;;0.48;100.00
57568;BME280;43403;51.948;5.922;2023-02-10T07:40:34;103628.09;;;0.49;100.00
57568;BME280;43403;51.948;5.922;2023-02-10T07:43:01;103634.09;;;0.52;100.00
57568;BME280;43403;51.948;5.922;2023-02-10T07:45:27;103626.31;;;0.58;100.00
57568;BME280;43403;51.948;5.922;2023-02-10T07:47:57;103632.25;;;0.68;100.00
57568;BME280;43403;51.948;5.922;2023-02-10T07:50:25;103634.78;;;0.76;100.00
57568;BME280;43403;51.948;5.922;2023-02-10T07:52:55;103629.53;;;0.82;100.00
57568;BME280;43403;51.948;5.922;2023-02-10T07:55:22;103632.09;;;0.85;100.00
57568;BME280;43403;51.948;5.922;2023-02-10T07:57:48;103637.28;;;0.84;100.00
57568;BME280;43403;51.948;5.922;2023-02-10T08:00:15;103645.88;;;0.84;100.00
57568;BME280;43403;51.948;5.922;2023-02-10T08:02:41;103653.63;;;0.84;100.00
57568;BME280;43403;51.948;5.922;2023-02-10T08:05:08;103658.81;;;0.86;100.00
57568;BME280;43403;51.948;5.922;2023-02-10T08:07:35;103657.94;;;0.88;100.00
57568;BME280;43403;51.948;5.922;2023-02-10T08:10:02;103657.84;;;0.97;100.00
57568;BME280;43403;51.948;5.922;2023-02-10T08:12:28;103669.00;;;1.03;100.00
57568;BME280;43403;51.948;5.922;2023-02-10T08:14:55;103667.31;;;1.00;100.00
57568;BME280;43403;51.948;5.922;2023-02-10T08:17:21;103679.28;;;1.06;100.00
57568;BME280;43403;51.948;5.922;2023-02-10T08:19:48;103690.53;;;1.05;100.00
57568;BME280;43403;51.948;5.922;2023-02-10T08:22:14;103685.28;;;1.12;100.00
57568;BME280;43403;51.948;5.922;2023-02-10T08:24:40;103697.28;;;1.18;100.00
57568;BME280;43403;51.948;5.922;2023-02-10T08:27:07;103700.72;;;1.18;100.00
57568;BME280;43403;51.948;5.922;2023-02-10T08:29:35;103695.56;;;1.17;100.00
57568;BME280;43403;51.948;5.922;2023-02-10T08:32:02;103692.97;;;1.22;100.00
57568;BME280;43403;51.948;5.922;2023-02-10T08:34:28;103704.16;;;1.17;100.00
57568;BME280;43403;51.948;5.922;2023-02-10T08:36:55;103688.75;;;1.10;100.00
57568;BME280;43403;51.948;5.922;2023-02-10T08:39:21;103667.19;;;1.12;100.00
57568;BME280;43403;51.948;5.922;2023-02-10T08:41:48;103683.59;;;1.08;100.00
57568;BME280;43403;51.948;5.922;2023-02-10T08:44:15;103673.19;;;1.13;100.00
57568;BME280;43403;51.948;5.922;2023-02-10T08:46:41;103674.09;;;1.12;100.00
57568;BME280;43403;51.948;5.922;2023-02-10T08:49:08;103680.09;;;1.12;100.00
57568;BME280;43403;51.948;5.922;2023-02-10T08:51:34;103680.97;;;1.11;100.00
57568;BME280;43403;51.948;5.922;2023-02-10T08:54:02;103678.38;;;1.14;100.00
57568;BME280;43403;51.948;5.922;2023-02-10T08:56:29;103675.72;;;1.19;100.00
57568;BME280;43403;51.948;5.922;2023-02-10T08:58:56;103671.31;;;1.29;100.00
57568;BME280;43403;51.948;5.922;2023-02-10T09:01:24;103680.78;;;1.30;100.00
57568;BME280;43403;51.948;5.922;2023-02-10T09:03:55;103678.16;;;1.34;100.00
57568;BME280;43403;51.948;5.922;2023-02-10T09:06:26;103685.91;;;1.33;100.00
57568;BME280;43403;51.948;5.922;2023-02-10T09:08:54;103688.41;;;1.42;100.00
57568;BME280;43403;51.948;5.922;2023-02-10T09:11:22;103684.09;;;1.44;100.00
57568;BME280;43403;51.948;5.922;2023-02-10T09:13:49;103682.22;;;1.57;100.00
57568;BME280;43403;51.948;5.922;2023-02-10T09:16:16;103686.50;;;1.58;100.00
57568;BME280;43403;51.948;5.922;2023-02-10T09:18:42;103684.75;;;1.63;100.00
57568;BME280;43403;51.948;5.922;2023-02-10T09:21:09;103691.53;;;1.70;100.00
57568;BME280;43403;51.948;5.922;2023-02-10T09:23:36;103690.66;;;1.73;100.00
57568;BME280;43403;51.948;5.922;2023-02-10T09:26:03;103689.78;;;1.72;100.00
57568;BME280;43403;51.948;5.922;2023-02-10T09:28:30;103702.78;;;1.69;100.00
57568;BME280;43403;51.948;5.922;2023-02-10T09:30:56;103700.13;;;1.75;100.00
57568;BME280;43403;51.948;5.922;2023-02-10T09:33:23;103687.09;;;1.82;100.00
57568;BME280;43403;51.948;5.922;2023-02-10T09:35:49;103682.75;;;1.85;100.00
57568;BME280;43403;51.948;5.922;2023-02-10T09:38:16;103685.16;;;1.96;100.00
57568;BME280;43403;51.948;5.922;2023-02-10T09:46:03;103685.78;;;2.15;100.00
57568;BME280;43403;51.948;5.922;2023-02-10T09:48:49;103694.28;;;2.25;100.00
57568;BME280;43403;51.948;5.922;2023-02-10T09:51:55;103687.25;;;2.33;100.00
57568;BME280;43403;51.948;5.922;2023-02-10T09:54:25;103687.22;;;2.37;100.00
57568;BME280;43403;51.948;5.922;2023-02-10T09:56:55;103693.25;;;2.38;100.00
57568;BME280;43403;51.948;5.922;2023-02-10T09:59:22;103688.88;;;2.40;100.00
57568;BME280;43403;51.948;5.922;2023-02-10T10:01:54;103693.16;;;2.43;100.00
57568;BME280;43403;51.948;5.922;2023-02-10T10:04:22;103699.88;;;2.54;100.00
57568;BME280;43403;51.948;5.922;2023-02-10T10:06:51;103694.47;;;2.70;100.00
57568;BME280;43403;51.948;5.922;2023-02-10T10:09:37;103702.03;;;2.84;100.00
57568;BME280;43403;51.948;5.922;2023-02-10T10:12:17;103704.38;;;2.97;100.00
57568;BME280;43403;51.948;5.922;2023-02-10T10:14:44;103704.34;;;3.01;100.00
57568;BME280;43403;51.948;5.922;2023-02-10T10:22:28;103692.97;;;3.08;100.00
57568;BME280;43403;51.948;5.922;2023-02-10T10:30:46;103686.25;;;3.44;100.00
57568;BME280;43403;51.948;5.922;2023-02-10T10:35:52;103683.16;;;3.69;100.00
57568;BME280;43403;51.948;5.922;2023-02-10T10:38:24;103692.31;;;3.87;100.00
57568;BME280;43403;51.948;5.922;2023-02-10T10:40:54;103680.81;;;3.99;100.00
57568;BME280;43403;51.948;5.922;2023-02-10T10:43:27;103684.78;;;4.13;100.00
57568;BME280;43403;51.948;5.922;2023-02-10T10:48:45;103669.22;;;4.13;100.00
57568;BME280;43403;51.948;5.922;2023-02-10T10:51:12;103663.72;;;4.27;100.00
57568;BME280;43403;51.948;5.922;2023-02-10T10:53:41;103657.66;;;4.27;100.00
57568;BME280;43403;51.948;5.922;2023-02-10T10:56:26;103657.41;;;4.38;100.00
57568;BME280;43403;51.948;5.922;2023-02-10T10:58:56;103657.28;;;4.42;100.00
57568;BME280;43403;51.948;5.922;2023-02-10T11:01:38;103650.09;;;4.53;100.00
57568;BME280;43403;51.948;5.922;2023-02-10T11:04:07;103657.06;;;4.53;100.00
57568;BME280;43403;51.948;5.922;2023-02-10T11:06:37;103653.28;;;4.65;100.00
57568;BME280;43403;51.948;5.922;2023-02-10T11:09:13;103655.53;;;4.79;100.00
57568;BME280;43403;51.948;5.922;2023-02-10T11:11:43;103661.25;;;4.91;100.00
57568;BME280;43403;51.948;5.922;2023-02-10T11:14:18;103661.69;;;5.09;100.00
57568;BME280;43403;51.948;5.922;2023-02-10T11:16:55;103664.47;;;5.01;100.00
57568;BME280;43403;51.948;5.922;2023-02-10T11:19:26;103647.47;;;5.21;100.00
57568;BME280;43403;51.948;5.922;2023-02-10T11:22:13;103652.09;;;5.42;100.00
57568;BME280;43403;51.948;5.922;2023-02-10T11:24:49;103650.03;;;5.53;100.00
57568;BME280;43403;51.948;5.922;2023-02-10T11:27:17;103637.47;;;5.68;100.00
57568;BME280;43403;51.948;5.922;2023-02-10T11:29:53;103632.78;;;5.79;100.00
57568;BME280;43403;51.948;5.922;2023-02-10T11:32:30;103628.97;;;5.91;100.00
57568;BME280;43403;51.948;5.922;2023-02-10T11:35:00;103623.34;;;6.05;100.00
57568;BME280;43403;51.948;5.922;2023-02-10T11:37:32;103630.97;;;6.11;100.00
57568;BME280;43403;51.948;5.922;2023-02-10T11:40:02;103613.97;;;6.27;100.00
57568;BME280;43403;51.948;5.922;2023-02-10T11:42:33;103619.84;;;6.32;100.00
57568;BME280;43403;51.948;5.922;2023-02-10T11:47:42;103625.38;;;6.50;100.00
57568;BME280;43403;51.948;5.922;2023-02-10T11:50:25;103615.53;;;6.58;100.00
57568;BME280;43403;51.948;5.922;2023-02-10T11:52:51;103616.03;;;6.69;100.00
57568;BME280;43403;51.948;5.922;2023-02-10T11:55:18;103606.88;;;6.83;100.00
57568;BME280;43403;51.948;5.922;2023-02-10T12:00:52;103605.38;;;7.01;100.00
57568;BME280;43403;51.948;5.922;2023-02-10T12:04:00;103591.81;;;7.15;100.00
57568;BME280;43403;51.948;5.922;2023-02-10T12:06:42;103587.13;;;7.24;100.00
57568;BME280;43403;51.948;5.922;2023-02-10T12:09:36;103595.19;;;7.18;100.00
57568;BME280;43403;51.948;5.922;2023-02-10T12:12:30;103594.88;;;7.26;100.00
57568;BME280;43403;51.948;5.922;2023-02-10T12:21:07;103595.69;;;7.51;100.00
57568;BME280;43403;51.948;5.922;2023-02-10T12:29:33;103598.19;;;7.77;96.09
57568;BME280;43403;51.948;5.922;2023-02-10T12:42:58;103595.19;;;7.86;86.66
57568;BME280;43403;51.948;5.922;2023-02-10T12:45:48;103585.50;;;8.11;88.10
57568;BME280;43403;51.948;5.922;2023-02-10T12:48:32;103585.28;;;8.16;85.97
57568;BME280;43403;51.948;5.922;2023-02-10T12:56:32;103563.69;;;8.33;86.00
57568;BME280;43403;51.948;5.922;2023-02-10T12:59:19;103575.78;;;8.36;81.33
57568;BME280;43403;51.948;5.922;2023-02-10T13:01:54;103564.69;;;8.29;79.94
57568;BME280;43403;51.948;5.922;2023-02-10T13:04:26;103555.69;;;8.36;81.50
57568;BME280;43403;51.948;5.922;2023-02-10T13:07:15;103555.63;;;8.38;79.80
57568;BME280;43403;51.948;5.922;2023-02-10T13:09:57;103537.59;;;8.52;78.98
57568;BME280;43403;51.948;5.922;2023-02-10T13:12:29;103543.09;;;8.66;79.62
57568;BME280;43403;51.948;5.922;2023-02-10T13:15:18;103543.28;;;8.82;77.74
57568;BME280;43403;51.948;5.922;2023-02-10T13:17:49;103537.78;;;8.68;74.03
57568;BME280;43403;51.948;5.922;2023-02-10T13:23:19;103540.31;;;8.90;76.73
57568;BME280;43403;51.948;5.922;2023-02-10T13:31:23;103541.09;;;9.11;76.13
57568;BME280;43403;51.948;5.922;2023-02-10T13:34:15;103545.06;;;9.20;75.12
57568;BME280;43403;51.948;5.922;2023-02-10T13:36:45;103539.00;;;9.19;74.17
57568;BME280;43403;51.948;5.922;2023-02-10T13:39:19;103536.78;;;9.10;74.25
57568;BME280;43403;51.948;5.922;2023-02-10T13:41:50;103527.91;;;8.75;74.18
57568;BME280;43403;51.948;5.922;2023-02-10T13:44:22;103523.25;;;8.81;77.49
57568;BME280;43403;51.948;5.922;2023-02-10T13:47:27;103522.63;;;8.76;77.15
57568;BME280;43403;51.948;5.922;2023-02-10T13:49:58;103513.38;;;8.67;78.03
57568;BME280;43403;51.948;5.922;2023-02-10T13:52:29;103502.47;;;8.58;76.77
57568;BME280;43403;51.948;5.922;2023-02-10T13:57:38;103490.44;;;8.33;77.19
57568;BME280;43403;51.948;5.922;2023-02-10T14:00:18;103473.47;;;8.43;80.71
57568;BME280;43403;51.948;5.922;2023-02-10T14:02:58;103463.09;;;8.40;80.19
57568;BME280;43403;51.948;5.922;2023-02-10T14:05:31;103469.44;;;8.35;80.13
57568;BME280;43403;51.948;5.922;2023-02-10T14:07:59;103473.94;;;8.31;78.65
57568;BME280;43403;51.948;5.922;2023-02-10T14:10:29;103468.53;;;8.36;80.07
57568;BME280;43403;51.948;5.922;2023-02-10T14:12:58;103470.44;;;8.32;79.98
57568;BME280;43403;51.948;5.922;2023-02-10T14:15:28;103478.28;;;8.32;81.44
57568;BME280;43403;51.948;5.922;2023-02-10T14:17:58;103468.31;;;8.40;81.90
57568;BME280;43403;51.948;5.922;2023-02-10T14:20:36;103480.53;;;8.41;81.73
57568;BME280;43403;51.948;5.922;2023-02-10T14:23:05;103471.75;;;8.42;83.31
57568;BME280;43403;51.948;5.922;2023-02-10T14:25:37;103475.44;;;8.37;84.80
57568;BME280;43403;51.948;5.922;2023-02-10T14:28:04;103487.16;;;8.28;85.56
57568;BME280;43403;51.948;5.922;2023-02-10T14:30:41;103476.72;;;8.28;88.30
57568;BME280;43403;51.948;5.922;2023-02-10T14:33:19;103496.78;;;8.07;90.30
57568;BME280;43403;51.948;5.922;2023-02-10T14:35:51;103493.06;;;7.92;94.10